sensor_id;sensor_type;location;lat;lon;timestamp;temperature;humidity
54680;DHT22;40578;53.178;5.846;2023-07-13T00:00:28;16.50;99.90
54680;DHT22;40578;53.178;5.846;2023-07-13T00:02:53;16.60;99.90
54680;DHT22;40578;53.178;5.846;2023-07-13T00:05:20;16.50;99.90
54680;DHT22;40578;53.178;5.846;2023-07-13T00:07:46;16.50;99.90
54680;DHT22;40578;53.178;5.846;2023-07-13T00:10:12;16.40;99.90
54680;DHT22;40578;53.178;5.846;2023-07-13T00:12:38;16.30;99.90
54680;DHT22;40578;53.178;5.846;2023-07-13T00:15:09;16.50;99.90
54680;DHT22;40578;53.178;5.846;2023-07-13T00:17:36;16.30;99.90
54680;DHT22;40578;53.178;5.846;2023-07-13T00:20:04;16.40;99.90
54680;DHT22;40578;53.178;5.846;2023-07-13T00:22:30;16.30;99.90
54680;DHT22;40578;53.178;5.846;2023-07-13T00:24:55;16.30;99.90
54680;DHT22;40578;53.178;5.846;2023-07-13T00:27:22;16.40;99.90
54680;DHT22;40578;53.178;5.846;2023-07-13T00:29:48;16.20;99.90
54680;DHT22;40578;53.178;5.846;2023-07-13T00:32:13;16.30;99.90
54680;DHT22;40578;53.178;5.846;2023-07-13T00:34:39;16.30;99.90
54680;DHT22;40578;53.178;5.846;2023-07-13T00:37:06;16.30;99.90
54680;DHT22;40578;53.178;5.846;2023-07-13T00:39:33;16.30;99.90
54680;DHT22;40578;53.178;5.846;2023-07-13T00:42:00;16.30;99.90
54680;DHT22;40578;53.178;5.846;2023-07-13T00:44:26;16.20;99.90
54680;DHT22;40578;53.178;5.846;2023-07-13T00:46:51;16.30;99.90
54680;DHT22;40578;53.178;5.846;2023-07-13T00:49:20;16.20;99.90
54680;DHT22;40578;53.178;5.846;2023-07-13T00:51:55;16.30;99.90
54680;DHT22;40578;53.178;5.846;2023-07-13T00:54:36;16.20;99.90
54680;DHT22;40578;53.178;5.846;2023-07-13T00:57:04;16.10;99.90
54680;DHT22;40578;53.178;5.846;2023-07-13T00:59:31;16.20;99.90
54680;DHT22;40578;53.178;5.846;2023-07-13T01:01:58;16.90;99.90
54680;DHT22;40578;53.178;5.846;2023-07-13T01:04:25;16.10;99.90
54680;DHT22;40578;53.178;5.846;2023-07-13T01:06:51;16.20;99.90
54680;DHT22;40578;53.178;5.846;2023-07-13T01:09:17;16.10;99.90
54680;DHT22;40578;53.178;5.846;2023-07-13T01:11:43;16.10;99.90
54680;DHT22;40578;53.178;5.846;2023-07-13T01:14:10;16.10;99.90
54680;DHT22;40578;53.178;5.846;2023-07-13T01:16:37;16.10;99.90
54680;DHT22;40578;53.178;5.846;2023-07-13T01:19:21;16.10;99.90
54680;DHT22;40578;53.178;5.846;2023-07-13T01:21:51;16.10;99.90
54680;DHT22;40578;53.178;5.846;2023-07-13T01:24:17;15.90;99.90
54680;DHT22;40578;53.178;5.846;2023-07-13T01:26:43;16.00;99.90
54680;DHT22;40578;53.178;5.846;2023-07-13T01:29:09;15.90;99.90
54680;DHT22;40578;53.178;5.846;2023-07-13T01:31:34;15.90;99.90
54680;DHT22;40578;53.178;5.846;2023-07-13T01:34:00;15.90;99.90
54680;DHT22;40578;53.178;5.846;2023-07-13T01:36:26;15.80;99.90
54680;DHT22;40578;53.178;5.846;2023-07-13T01:38:51;15.90;99.90
54680;DHT22;40578;53.178;5.846;2023-07-13T01:41:17;15.80;99.90
54680;DHT22;40578;53.178;5.846;2023-07-13T01:43:43;15.70;99.90
54680;DHT22;40578;53.178;5.846;2023-07-13T01:46:08;15.80;99.90
54680;DHT22;40578;53.178;5.846;2023-07-13T01:48:34;16.00;99.90
54680;DHT22;40578;53.178;5.846;2023-07-13T01:51:00;15.80;99.90
54680;DHT22;40578;53.178;5.846;2023-07-13T01:53:25;15.80;99.90
54680;DHT22;40578;53.178;5.846;2023-07-13T01:55:51;15.80;99.90
54680;DHT22;40578;53.178;5.846;2023-07-13T01:58:17;15.80;99.90
54680;DHT22;40578;53.178;5.846;2023-07-13T02:00:42;15.80;99.90
54680;DHT22;40578;53.178;5.846;2023-07-13T02:03:08;15.90;99.90
54680;DHT22;40578;53.178;5.846;2023-07-13T02:05:33;15.80;99.90
54680;DHT22;40578;53.178;5.846;2023-07-13T02:07:59;16.00;99.90
54680;DHT22;40578;53.178;5.846;2023-07-13T02:10:25;15.80;99.90
54680;DHT22;40578;53.178;5.846;2023-07-13T02:12:51;15.70;99.90
54680;DHT22;40578;53.178;5.846;2023-07-13T02:15:17;15.80;99.90
54680;DHT22;40578;53.178;5.846;2023-07-13T02:17:42;15.80;99.90
54680;DHT22;40578;53.178;5.846;2023-07-13T02:20:08;15.70;99.90
54680;DHT22;40578;53.178;5.846;2023-07-13T02:22:35;15.60;99.90
54680;DHT22;40578;53.178;5.846;2023-07-13T02:25:01;15.60;99.90
54680;DHT22;40578;53.178;5.846;2023-07-13T02:27:27;15.60;99.90
54680;DHT22;40578;53.178;5.846;2023-07-13T02:29:53;15.50;99.90
54680;DHT22;40578;53.178;5.846;2023-07-13T02:32:18;15.40;99.90
54680;DHT22;40578;53.178;5.846;2023-07-13T02:34:44;15.40;99.90
54680;DHT22;40578;53.178;5.846;2023-07-13T02:37:10;15.40;99.90
54680;DHT22;40578;53.178;5.846;2023-07-13T02:39:36;15.50;99.90
54680;DHT22;40578;53.178;5.846;2023-07-13T02:42:01;15.50;99.90
54680;DHT22;40578;53.178;5.846;2023-07-13T02:44:27;15.60;99.90
54680;DHT22;40578;53.178;5.846;2023-07-13T02:46:53;15.60;99.90
54680;DHT22;40578;53.178;5.846;2023-07-13T02:49:19;15.70;99.90
54680;DHT22;40578;53.178;5.846;2023-07-13T02:51:44;15.50;99.90
54680;DHT22;40578;53.178;5.846;2023-07-13T02:54:10;15.70;99.90
54680;DHT22;40578;53.178;5.846;2023-07-13T02:56:37;15.50;99.90
54680;DHT22;40578;53.178;5.846;2023-07-13T02:59:04;15.60;99.90
54680;DHT22;40578;53.178;5.846;2023-07-13T03:01:30;15.70;99.90
54680;DHT22;40578;53.178;5.846;2023-07-13T03:03:58;15.70;99.90
54680;DHT22;40578;53.178;5.846;2023-07-13T03:06:23;15.60;99.90
54680;DHT22;40578;53.178;5.846;2023-07-13T03:08:50;15.50;99.90
54680;DHT22;40578;53.178;5.846;2023-07-13T03:11:19;16.20;99.90
54680;DHT22;40578;53.178;5.846;2023-07-13T03:13:45;15.40;99.90
54680;DHT22;40578;53.178;5.846;2023-07-13T03:16:12;15.60;99.90
54680;DHT22;40578;53.178;5.846;2023-07-13T03:18:38;15.60;99.90
54680;DHT22;40578;53.178;5.846;2023-07-13T03:21:04;15.40;99.90
54680;DHT22;40578;53.178;5.846;2023-07-13T03:23:31;15.40;99.90
54680;DHT22;40578;53.178;5.846;2023-07-13T03:26:12;15.30;99.90
54680;DHT22;40578;53.178;5.846;2023-07-13T03:28:38;15.40;99.90
54680;DHT22;40578;53.178;5.846;2023-07-13T03:31:25;15.30;99.90
54680;DHT22;40578;53.178;5.846;2023-07-13T03:33:51;15.20;99.90
54680;DHT22;40578;53.178;5.846;2023-07-13T03:36:23;15.30;99.90
54680;DHT22;40578;53.178;5.846;2023-07-13T03:38:51;15.30;99.90
54680;DHT22;40578;53.178;5.846;2023-07-13T03:41:17;15.30;99.90
54680;DHT22;40578;53.178;5.846;2023-07-13T03:43:43;15.10;99.90
54680;DHT22;40578;53.178;5.846;2023-07-13T03:46:09;15.20;99.90
54680;DHT22;40578;53.178;5.846;2023-07-13T03:48:35;15.20;99.90
54680;DHT22;40578;53.178;5.846;2023-07-13T03:51:01;15.20;99.90
54680;DHT22;40578;53.178;5.846;2023-07-13T03:53:26;15.20;99.90
54680;DHT22;40578;53.178;5.846;2023-07-13T03:55:52;15.10;99.90
54680;DHT22;40578;53.178;5.846;2023-07-13T03:58:27;15.10;99.90
54680;DHT22;40578;53.178;5.846;2023-07-13T04:00:54;15.00;99.90
54680;DHT22;40578;53.178;5.846;2023-07-13T04:03:20;15.10;99.90
54680;DHT22;40578;53.178;5.846;2023-07-13T04:05:45;15.20;99.90
54680;DHT22;40578;53.178;5.846;2023-07-13T04:08:11;15.10;99.90
54680;DHT22;40578;53.178;5.846;2023-07-13T04:10:37;15.20;99.90
54680;DHT22;40578;53.178;5.846;2023-07-13T04:13:04;15.30;99.90
54680;DHT22;40578;53.178;5.846;2023-07-13T04:15:31;15.30;99.90
54680;DHT22;40578;53.178;5.846;2023-07-13T04:17:57;15.20;99.90
54680;DHT22;40578;53.178;5.846;2023-07-13T04:20:24;15.20;99.90
54680;DHT22;40578;53.178;5.846;2023-07-13T04:22:49;15.20;99.90
54680;DHT22;40578;53.178;5.846;2023-07-13T04:25:15;15.30;99.90
54680;DHT22;40578;53.178;5.846;2023-07-13T04:27:41;15.20;99.90
54680;DHT22;40578;53.178;5.846;2023-07-13T04:30:07;15.20;99.90
54680;DHT22;40578;53.178;5.846;2023-07-13T04:32:33;15.20;99.90
54680;DHT22;40578;53.178;5.846;2023-07-13T04:34:58;15.20;99.90
54680;DHT22;40578;53.178;5.846;2023-07-13T04:37:25;15.20;99.90
54680;DHT22;40578;53.178;5.846;2023-07-13T04:39:51;15.20;99.90
54680;DHT22;40578;53.178;5.846;2023-07-13T04:42:17;15.20;99.90
54680;DHT22;40578;53.178;5.846;2023-07-13T04:44:50;15.30;99.90
54680;DHT22;40578;53.178;5.846;2023-07-13T04:47:17;15.30;99.90
54680;DHT22;40578;53.178;5.846;2023-07-13T04:49:43;15.20;99.90
54680;DHT22;40578;53.178;5.846;2023-07-13T04:52:08;15.50;99.90
54680;DHT22;40578;53.178;5.846;2023-07-13T04:54:35;15.40;99.90
54680;DHT22;40578;53.178;5.846;2023-07-13T04:57:01;15.40;99.90
54680;DHT22;40578;53.178;5.846;2023-07-13T04:59:26;15.50;99.90
54680;DHT22;40578;53.178;5.846;2023-07-13T05:01:53;16.00;99.90
54680;DHT22;40578;53.178;5.846;2023-07-13T05:04:18;16.60;99.90
54680;DHT22;40578;53.178;5.846;2023-07-13T05:06:44;16.90;99.90
54680;DHT22;40578;53.178;5.846;2023-07-13T05:09:10;17.20;99.90
54680;DHT22;40578;53.178;5.846;2023-07-13T05:11:35;17.60;99.90
54680;DHT22;40578;53.178;5.846;2023-07-13T05:14:01;18.10;99.90
54680;DHT22;40578;53.178;5.846;2023-07-13T05:16:27;18.40;99.90
54680;DHT22;40578;53.178;5.846;2023-07-13T05:18:53;18.40;99.90
54680;DHT22;40578;53.178;5.846;2023-07-13T05:21:22;18.60;99.90
54680;DHT22;40578;53.178;5.846;2023-07-13T05:23:47;18.80;99.90
54680;DHT22;40578;53.178;5.846;2023-07-13T05:26:13;18.80;99.90
54680;DHT22;40578;53.178;5.846;2023-07-13T05:28:39;19.00;99.90
54680;DHT22;40578;53.178;5.846;2023-07-13T05:31:06;19.50;99.90
54680;DHT22;40578;53.178;5.846;2023-07-13T05:33:32;19.50;99.90
54680;DHT22;40578;53.178;5.846;2023-07-13T05:35:58;19.50;99.90
54680;DHT22;40578;53.178;5.846;2023-07-13T05:38:26;19.80;99.90
54680;DHT22;40578;53.178;5.846;2023-07-13T05:40:54;19.60;99.90
54680;DHT22;40578;53.178;5.846;2023-07-13T05:43:19;19.20;99.90
54680;DHT22;40578;53.178;5.846;2023-07-13T05:45:45;19.30;99.90
54680;DHT22;40578;53.178;5.846;2023-07-13T05:48:11;18.10;99.90
54680;DHT22;40578;53.178;5.846;2023-07-13T05:50:36;17.90;99.90
54680;DHT22;40578;53.178;5.846;2023-07-13T05:53:02;17.70;99.90
54680;DHT22;40578;53.178;5.846;2023-07-13T05:55:28;17.60;99.90
54680;DHT22;40578;53.178;5.846;2023-07-13T05:57:54;17.90;99.90
54680;DHT22;40578;53.178;5.846;2023-07-13T06:00:19;18.10;99.90
54680;DHT22;40578;53.178;5.846;2023-07-13T06:02:45;17.90;99.90
54680;DHT22;40578;53.178;5.846;2023-07-13T06:05:11;17.70;99.90
54680;DHT22;40578;53.178;5.846;2023-07-13T06:07:37;17.70;99.90
54680;DHT22;40578;53.178;5.846;2023-07-13T06:10:03;17.70;99.90
54680;DHT22;40578;53.178;5.846;2023-07-13T06:12:29;17.80;99.90
54680;DHT22;40578;53.178;5.846;2023-07-13T06:14:54;17.60;99.90
54680;DHT22;40578;53.178;5.846;2023-07-13T06:17:20;17.80;99.90
54680;DHT22;40578;53.178;5.846;2023-07-13T06:19:45;18.30;99.90
54680;DHT22;40578;53.178;5.846;2023-07-13T06:22:11;18.80;99.90
54680;DHT22;40578;53.178;5.846;2023-07-13T06:24:37;19.10;99.90
54680;DHT22;40578;53.178;5.846;2023-07-13T06:27:02;18.70;99.90
54680;DHT22;40578;53.178;5.846;2023-07-13T06:29:28;18.50;99.90
54680;DHT22;40578;53.178;5.846;2023-07-13T06:31:54;18.30;99.90
54680;DHT22;40578;53.178;5.846;2023-07-13T06:34:19;18.30;99.90
54680;DHT22;40578;53.178;5.846;2023-07-13T06:36:45;18.20;99.90
54680;DHT22;40578;53.178;5.846;2023-07-13T06:39:11;18.20;99.90
54680;DHT22;40578;53.178;5.846;2023-07-13T06:41:36;18.10;99.90
54680;DHT22;40578;53.178;5.846;2023-07-13T06:44:04;18.00;99.90
54680;DHT22;40578;53.178;5.846;2023-07-13T06:46:30;18.10;99.90
54680;DHT22;40578;53.178;5.846;2023-07-13T06:48:56;18.20;99.90
54680;DHT22;40578;53.178;5.846;2023-07-13T06:51:21;18.20;99.90
54680;DHT22;40578;53.178;5.846;2023-07-13T06:53:48;18.30;99.90
54680;DHT22;40578;53.178;5.846;2023-07-13T06:56:16;18.40;99.90
54680;DHT22;40578;53.178;5.846;2023-07-13T06:58:42;18.20;99.90
54680;DHT22;40578;53.178;5.846;2023-07-13T07:01:08;18.20;99.90
54680;DHT22;40578;53.178;5.846;2023-07-13T07:03:34;18.10;99.90
54680;DHT22;40578;53.178;5.846;2023-07-13T07:06:17;18.20;99.90
54680;DHT22;40578;53.178;5.846;2023-07-13T07:08:43;18.00;99.90
54680;DHT22;40578;53.178;5.846;2023-07-13T07:11:19;18.20;99.90
54680;DHT22;40578;53.178;5.846;2023-07-13T07:13:45;18.00;99.90
54680;DHT22;40578;53.178;5.846;2023-07-13T07:16:11;18.10;99.90
54680;DHT22;40578;53.178;5.846;2023-07-13T07:18:37;18.30;99.90
54680;DHT22;40578;53.178;5.846;2023-07-13T07:21:03;18.40;99.90
54680;DHT22;40578;53.178;5.846;2023-07-13T07:23:28;18.40;99.90
54680;DHT22;40578;53.178;5.846;2023-07-13T07:25:54;18.50;99.90
54680;DHT22;40578;53.178;5.846;2023-07-13T07:28:20;18.60;99.90
54680;DHT22;40578;53.178;5.846;2023-07-13T07:30:46;18.70;99.90
54680;DHT22;40578;53.178;5.846;2023-07-13T07:33:12;18.80;99.90
54680;DHT22;40578;53.178;5.846;2023-07-13T07:35:40;18.90;99.90
54680;DHT22;40578;53.178;5.846;2023-07-13T07:38:06;18.80;99.90
54680;DHT22;40578;53.178;5.846;2023-07-13T07:40:37;18.60;99.90
54680;DHT22;40578;53.178;5.846;2023-07-13T07:43:03;18.60;99.90
54680;DHT22;40578;53.178;5.846;2023-07-13T07:45:29;18.50;99.90
54680;DHT22;40578;53.178;5.846;2023-07-13T07:47:55;18.60;99.90
54680;DHT22;40578;53.178;5.846;2023-07-13T07:50:25;18.60;99.90
54680;DHT22;40578;53.178;5.846;2023-07-13T07:52:51;18.60;99.90
54680;DHT22;40578;53.178;5.846;2023-07-13T07:55:17;18.60;99.90
54680;DHT22;40578;53.178;5.846;2023-07-13T07:57:43;18.60;99.90
54680;DHT22;40578;53.178;5.846;2023-07-13T08:00:09;18.40;99.90
54680;DHT22;40578;53.178;5.846;2023-07-13T08:02:35;18.50;99.90
54680;DHT22;40578;53.178;5.846;2023-07-13T08:05:01;18.70;99.90
54680;DHT22;40578;53.178;5.846;2023-07-13T08:07:26;18.70;99.90
54680;DHT22;40578;53.178;5.846;2023-07-13T08:09:55;18.70;99.90
54680;DHT22;40578;53.178;5.846;2023-07-13T08:12:20;18.60;99.90
54680;DHT22;40578;53.178;5.846;2023-07-13T08:14:49;18.70;99.90
54680;DHT22;40578;53.178;5.846;2023-07-13T08:17:22;18.70;99.90
54680;DHT22;40578;53.178;5.846;2023-07-13T08:19:47;18.70;99.90
54680;DHT22;40578;53.178;5.846;2023-07-13T08:22:13;18.90;99.90
54680;DHT22;40578;53.178;5.846;2023-07-13T08:24:39;19.00;99.90
54680;DHT22;40578;53.178;5.846;2023-07-13T08:27:05;19.00;99.90
54680;DHT22;40578;53.178;5.846;2023-07-13T08:29:30;19.10;99.90
54680;DHT22;40578;53.178;5.846;2023-07-13T08:31:59;19.30;99.90
54680;DHT22;40578;53.178;5.846;2023-07-13T08:34:24;19.40;99.90
54680;DHT22;40578;53.178;5.846;2023-07-13T08:36:50;19.40;99.90
54680;DHT22;40578;53.178;5.846;2023-07-13T08:39:16;19.50;99.90
54680;DHT22;40578;53.178;5.846;2023-07-13T08:41:42;19.60;99.90
54680;DHT22;40578;53.178;5.846;2023-07-13T08:44:37;19.60;99.90
54680;DHT22;40578;53.178;5.846;2023-07-13T08:47:06;19.60;99.90
54680;DHT22;40578;53.178;5.846;2023-07-13T08:49:33;19.40;99.90
54680;DHT22;40578;53.178;5.846;2023-07-13T08:52:04;19.30;99.90
54680;DHT22;40578;53.178;5.846;2023-07-13T08:54:43;19.30;99.90
54680;DHT22;40578;53.178;5.846;2023-07-13T08:57:18;19.30;99.90
54680;DHT22;40578;53.178;5.846;2023-07-13T08:59:44;19.30;99.90
54680;DHT22;40578;53.178;5.846;2023-07-13T09:02:23;19.30;99.90
54680;DHT22;40578;53.178;5.846;2023-07-13T09:04:52;19.40;99.90
54680;DHT22;40578;53.178;5.846;2023-07-13T09:10:16;19.60;99.90
54680;DHT22;40578;53.178;5.846;2023-07-13T09:15:28;19.60;99.90
54680;DHT22;40578;53.178;5.846;2023-07-13T09:18:00;19.80;99.90
54680;DHT22;40578;53.178;5.846;2023-07-13T09:20:39;19.60;99.90
54680;DHT22;40578;53.178;5.846;2023-07-13T09:23:15;19.30;99.90
54680;DHT22;40578;53.178;5.846;2023-07-13T09:25:46;19.20;99.90
54680;DHT22;40578;53.178;5.846;2023-07-13T09:31:06;19.20;99.90
54680;DHT22;40578;53.178;5.846;2023-07-13T09:33:33;19.30;99.90
54680;DHT22;40578;53.178;5.846;2023-07-13T09:36:01;19.30;99.90
54680;DHT22;40578;53.178;5.846;2023-07-13T09:38:29;19.30;99.90
54680;DHT22;40578;53.178;5.846;2023-07-13T09:41:15;19.40;99.90
54680;DHT22;40578;53.178;5.846;2023-07-13T09:46:31;19.40;99.90
54680;DHT22;40578;53.178;5.846;2023-07-13T09:48:57;19.50;99.90
54680;DHT22;40578;53.178;5.846;2023-07-13T09:51:23;19.60;99.90
54680;DHT22;40578;53.178;5.846;2023-07-13T09:53:49;19.50;99.90
54680;DHT22;40578;53.178;5.846;2023-07-13T09:56:23;19.50;99.90
54680;DHT22;40578;53.178;5.846;2023-07-13T09:58:49;19.60;99.90
54680;DHT22;40578;53.178;5.846;2023-07-13T10:01:15;19.80;99.90
54680;DHT22;40578;53.178;5.846;2023-07-13T10:03:53;19.70;99.90
54680;DHT22;40578;53.178;5.846;2023-07-13T10:06:21;19.70;99.90
54680;DHT22;40578;53.178;5.846;2023-07-13T10:08:49;19.80;99.90
54680;DHT22;40578;53.178;5.846;2023-07-13T10:11:28;20.00;99.90
54680;DHT22;40578;53.178;5.846;2023-07-13T10:14:11;19.90;99.90
54680;DHT22;40578;53.178;5.846;2023-07-13T10:16:38;19.90;99.90
54680;DHT22;40578;53.178;5.846;2023-07-13T10:19:11;19.90;99.90
54680;DHT22;40578;53.178;5.846;2023-07-13T10:22:20;20.20;99.90
54680;DHT22;40578;53.178;5.846;2023-07-13T10:24:49;20.00;99.90
54680;DHT22;40578;53.178;5.846;2023-07-13T10:27:28;19.90;99.90
54680;DHT22;40578;53.178;5.846;2023-07-13T10:30:21;20.10;99.90
54680;DHT22;40578;53.178;5.846;2023-07-13T10:32:49;20.10;99.90
54680;DHT22;40578;53.178;5.846;2023-07-13T10:35:18;20.20;99.90
54680;DHT22;40578;53.178;5.846;2023-07-13T10:38:11;20.00;99.90
54680;DHT22;40578;53.178;5.846;2023-07-13T10:40:40;20.00;99.90
54680;DHT22;40578;53.178;5.846;2023-07-13T10:43:34;19.90;99.90
54680;DHT22;40578;53.178;5.846;2023-07-13T10:46:06;19.90;99.90
54680;DHT22;40578;53.178;5.846;2023-07-13T10:48:34;19.90;99.90
54680;DHT22;40578;53.178;5.846;2023-07-13T10:51:04;20.00;99.90
54680;DHT22;40578;53.178;5.846;2023-07-13T10:53:33;20.20;99.90
54680;DHT22;40578;53.178;5.846;2023-07-13T10:58:42;20.00;99.90
54680;DHT22;40578;53.178;5.846;2023-07-13T11:01:16;20.00;99.90
54680;DHT22;40578;53.178;5.846;2023-07-13T11:04:03;20.00;99.90
54680;DHT22;40578;53.178;5.846;2023-07-13T11:11:48;19.90;99.90
54680;DHT22;40578;53.178;5.846;2023-07-13T11:17:36;19.70;99.90
54680;DHT22;40578;53.178;5.846;2023-07-13T11:23:35;20.30;99.90
54680;DHT22;40578;53.178;5.846;2023-07-13T11:25:43;20.50;99.90
54680;DHT22;40578;53.178;5.846;2023-07-13T11:38:31;20.80;99.90
54680;DHT22;40578;53.178;5.846;2023-07-13T11:41:02;20.70;99.90
54680;DHT22;40578;53.178;5.846;2023-07-13T11:43:29;20.70;99.90
54680;DHT22;40578;53.178;5.846;2023-07-13T11:45:54;20.70;99.90
54680;DHT22;40578;53.178;5.846;2023-07-13T11:48:23;20.80;99.90
54680;DHT22;40578;53.178;5.846;2023-07-13T11:50:56;20.90;99.90
54680;DHT22;40578;53.178;5.846;2023-07-13T11:53:24;21.00;99.90
54680;DHT22;40578;53.178;5.846;2023-07-13T11:55:51;21.00;99.90
54680;DHT22;40578;53.178;5.846;2023-07-13T11:58:21;21.10;99.90
54680;DHT22;40578;53.178;5.846;2023-07-13T12:00:49;21.20;99.90
54680;DHT22;40578;53.178;5.846;2023-07-13T12:03:18;21.30;99.90
54680;DHT22;40578;53.178;5.846;2023-07-13T12:05:59;21.10;99.90
54680;DHT22;40578;53.178;5.846;2023-07-13T12:08:26;21.10;99.90
54680;DHT22;40578;53.178;5.846;2023-07-13T12:11:12;21.10;99.90
54680;DHT22;40578;53.178;5.846;2023-07-13T12:13:40;21.20;99.90
54680;DHT22;40578;53.178;5.846;2023-07-13T12:16:15;21.20;99.90
54680;DHT22;40578;53.178;5.846;2023-07-13T12:18:43;21.40;99.90
54680;DHT22;40578;53.178;5.846;2023-07-13T12:21:13;21.30;99.90
54680;DHT22;40578;53.178;5.846;2023-07-13T12:23:43;21.30;99.90
54680;DHT22;40578;53.178;5.846;2023-07-13T12:26:09;21.50;99.90
54680;DHT22;40578;53.178;5.846;2023-07-13T12:31:43;21.80;99.90
54680;DHT22;40578;53.178;5.846;2023-07-13T12:34:21;21.40;99.90
54680;DHT22;40578;53.178;5.846;2023-07-13T12:36:51;21.20;99.90
54680;DHT22;40578;53.178;5.846;2023-07-13T12:41:46;21.30;99.90
54680;DHT22;40578;53.178;5.846;2023-07-13T12:44:15;21.20;99.90
54680;DHT22;40578;53.178;5.846;2023-07-13T12:46:53;21.20;99.90
54680;DHT22;40578;53.178;5.846;2023-07-13T12:49:24;21.20;99.90
54680;DHT22;40578;53.178;5.846;2023-07-13T12:51:50;21.10;99.90
54680;DHT22;40578;53.178;5.846;2023-07-13T12:54:20;21.00;99.90
54680;DHT22;40578;53.178;5.846;2023-07-13T12:56:49;20.70;99.90
54680;DHT22;40578;53.178;5.846;2023-07-13T12:59:20;20.60;99.90
54680;DHT22;40578;53.178;5.846;2023-07-13T13:01:46;20.50;99.90
54680;DHT22;40578;53.178;5.846;2023-07-13T13:04:12;20.40;99.90
54680;DHT22;40578;53.178;5.846;2023-07-13T13:06:38;20.30;99.90
54680;DHT22;40578;53.178;5.846;2023-07-13T13:09:13;20.00;99.90
54680;DHT22;40578;53.178;5.846;2023-07-13T13:11:39;19.90;99.90
54680;DHT22;40578;53.178;5.846;2023-07-13T13:14:06;20.00;99.90
54680;DHT22;40578;53.178;5.846;2023-07-13T13:16:47;20.00;99.90
54680;DHT22;40578;53.178;5.846;2023-07-13T13:19:20;20.10;99.90
54680;DHT22;40578;53.178;5.846;2023-07-13T13:21:47;20.10;99.90
54680;DHT22;40578;53.178;5.846;2023-07-13T13:24:16;20.20;99.90
54680;DHT22;40578;53.178;5.846;2023-07-13T13:26:43;20.30;99.90
54680;DHT22;40578;53.178;5.846;2023-07-13T13:29:16;20.50;99.90
54680;DHT22;40578;53.178;5.846;2023-07-13T13:31:42;20.70;99.90
54680;DHT22;40578;53.178;5.846;2023-07-13T13:34:13;20.80;99.90
54680;DHT22;40578;53.178;5.846;2023-07-13T13:36:40;20.80;99.90
54680;DHT22;40578;53.178;5.846;2023-07-13T13:41:41;21.00;99.90
54680;DHT22;40578;53.178;5.846;2023-07-13T13:44:09;21.00;99.90
54680;DHT22;40578;53.178;5.846;2023-07-13T13:46:35;20.90;99.90
54680;DHT22;40578;53.178;5.846;2023-07-13T13:49:01;20.80;99.90
54680;DHT22;40578;53.178;5.846;2023-07-13T13:51:28;20.70;99.90
54680;DHT22;40578;53.178;5.846;2023-07-13T13:53:54;20.90;99.90
54680;DHT22;40578;53.178;5.846;2023-07-13T13:56:20;21.10;99.90
54680;DHT22;40578;53.178;5.846;2023-07-13T13:58:46;21.10;99.90
54680;DHT22;40578;53.178;5.846;2023-07-13T14:01:19;21.30;99.90
54680;DHT22;40578;53.178;5.846;2023-07-13T14:03:45;21.40;99.90
54680;DHT22;40578;53.178;5.846;2023-07-13T14:06:15;21.20;99.90
54680;DHT22;40578;53.178;5.846;2023-07-13T14:08:41;21.60;99.90
54680;DHT22;40578;53.178;5.846;2023-07-13T14:11:12;21.80;99.90
54680;DHT22;40578;53.178;5.846;2023-07-13T14:13:47;21.70;99.90
54680;DHT22;40578;53.178;5.846;2023-07-13T14:16:19;21.60;99.90
54680;DHT22;40578;53.178;5.846;2023-07-13T14:18:45;21.60;99.90
54680;DHT22;40578;53.178;5.846;2023-07-13T14:21:16;21.40;99.90
54680;DHT22;40578;53.178;5.846;2023-07-13T14:23:44;21.30;99.90
54680;DHT22;40578;53.178;5.846;2023-07-13T14:26:12;20.90;99.90
54680;DHT22;40578;53.178;5.846;2023-07-13T14:28:42;21.10;99.90
54680;DHT22;40578;53.178;5.846;2023-07-13T14:31:09;21.40;99.90
54680;DHT22;40578;53.178;5.846;2023-07-13T14:33:34;21.50;99.90
54680;DHT22;40578;53.178;5.846;2023-07-13T14:36:00;21.60;99.90
54680;DHT22;40578;53.178;5.846;2023-07-13T14:38:27;21.80;99.90
54680;DHT22;40578;53.178;5.846;2023-07-13T14:40:52;21.90;99.90
54680;DHT22;40578;53.178;5.846;2023-07-13T14:43:18;21.60;99.90
54680;DHT22;40578;53.178;5.846;2023-07-13T14:45:47;21.70;99.90
54680;DHT22;40578;53.178;5.846;2023-07-13T14:48:24;21.80;99.90
54680;DHT22;40578;53.178;5.846;2023-07-13T14:50:57;21.80;99.90
54680;DHT22;40578;53.178;5.846;2023-07-13T14:53:25;21.90;99.90
54680;DHT22;40578;53.178;5.846;2023-07-13T14:55:52;21.80;99.90
54680;DHT22;40578;53.178;5.846;2023-07-13T14:58:17;21.60;99.90
54680;DHT22;40578;53.178;5.846;2023-07-13T15:00:43;21.70;99.90
54680;DHT22;40578;53.178;5.846;2023-07-13T15:03:21;21.90;99.90
54680;DHT22;40578;53.178;5.846;2023-07-13T15:05:47;22.20;99.90
54680;DHT22;40578;53.178;5.846;2023-07-13T15:08:13;22.10;99.90
54680;DHT22;40578;53.178;5.846;2023-07-13T15:10:40;22.00;99.90
54680;DHT22;40578;53.178;5.846;2023-07-13T15:13:20;21.90;99.90
54680;DHT22;40578;53.178;5.846;2023-07-13T15:15:48;21.90;99.90
54680;DHT22;40578;53.178;5.846;2023-07-13T15:18:16;21.40;99.90
54680;DHT22;40578;53.178;5.846;2023-07-13T15:20:44;21.40;99.90
54680;DHT22;40578;53.178;5.846;2023-07-13T15:23:12;21.20;99.90
54680;DHT22;40578;53.178;5.846;2023-07-13T15:25:38;21.30;99.90
54680;DHT22;40578;53.178;5.846;2023-07-13T15:28:06;21.50;99.90
54680;DHT22;40578;53.178;5.846;2023-07-13T15:30:42;21.30;99.90
54680;DHT22;40578;53.178;5.846;2023-07-13T15:33:29;21.20;99.90
54680;DHT22;40578;53.178;5.846;2023-07-13T15:35:55;21.00;99.90
54680;DHT22;40578;53.178;5.846;2023-07-13T15:38:24;21.00;99.90
54680;DHT22;40578;53.178;5.846;2023-07-13T15:40:52;21.10;99.90
54680;DHT22;40578;53.178;5.846;2023-07-13T15:43:19;21.30;99.90
54680;DHT22;40578;53.178;5.846;2023-07-13T15:45:45;21.30;99.90
54680;DHT22;40578;53.178;5.846;2023-07-13T15:48:21;21.20;99.90
54680;DHT22;40578;53.178;5.846;2023-07-13T15:50:53;21.50;99.90
54680;DHT22;40578;53.178;5.846;2023-07-13T15:53:24;21.60;99.90
54680;DHT22;40578;53.178;5.846;2023-07-13T15:55:51;21.70;99.90
54680;DHT22;40578;53.178;5.846;2023-07-13T15:58:17;21.60;99.90
54680;DHT22;40578;53.178;5.846;2023-07-13T16:00:44;21.30;99.90
54680;DHT22;40578;53.178;5.846;2023-07-13T16:03:10;21.20;99.90
54680;DHT22;40578;53.178;5.846;2023-07-13T16:05:36;21.30;99.90
54680;DHT22;40578;53.178;5.846;2023-07-13T16:08:09;21.60;99.90
54680;DHT22;40578;53.178;5.846;2023-07-13T16:10:42;21.70;99.90
54680;DHT22;40578;53.178;5.846;2023-07-13T16:13:15;21.90;99.90
54680;DHT22;40578;53.178;5.846;2023-07-13T16:15:41;22.10;99.90
54680;DHT22;40578;53.178;5.846;2023-07-13T16:18:13;21.90;99.90
54680;DHT22;40578;53.178;5.846;2023-07-13T16:20:43;21.90;99.90